Time,TemperatureF,DewpointF,PressureIn,WindDirection,WindDirectionDegrees,WindSpeedMPH,WindSpeedGustMPH,Humidity,HourlyPrecipIn,Conditions,Clouds,dailyrainin,SolarRadiationWatts/m^2,SoftwareType,DateUTC
2013-04-13 00:00:00,36.5,30.9,29.85,SE,136,2.6,3.4,80,0.00,SCT,SCT,0.00,0.0,WeatherDisplay:10.37,2013-04-13 06:00:00,
2013-04-13 00:05:00,36.5,30.9,29.84,SE,136,0.5,2.0,80,0.00,FEW,FEW,0.00,0.0,WeatherDisplay:10.37,2013-04-13 06:05:00,
2013-04-13 00:10:00,36.3,30.7,29.83,SE,128,4.0,6.9,80,0.00,FEW,FEW,0.00,0.0,WeatherDisplay:10.37,2013-04-13 06:10:00,
2013-04-13 00:15:00,36.2,30.9,29.83,SE,128,2.4,5.0,81,0.00,FEW,FEW,0.00,0.0,WeatherDisplay:10.37,2013-04-13 06:15:00,
2013-04-13 00:20:00,36.1,30.5,29.83,SE,141,4.7,9.2,80,0.00,FEW,FEW,0.00,0.0,WeatherDisplay:10.37,2013-04-13 06:20:00,
2013-04-13 00:25:00,36.0,30.7,29.83,SE,133,6.8,12.0,81,0.00,FEW,FEW,0.00,0.0,WeatherDisplay:10.37,2013-04-13 06:25:00,
2013-04-13 00:30:00,35.9,30.6,29.83,SSE,150,4.3,8.1,81,0.00,FEW,FEW,0.00,0.0,WeatherDisplay:10.37,2013-04-13 06:30:00,
2013-04-13 00:35:00,35.7,30.4,29.83,SSE,152,4.2,9.2,81,0.00,FEW,FEW,0.00,0.0,WeatherDisplay:10.37,2013-04-13 06:35:00,
2013-04-13 00:40:00,35.6,30.3,29.82,SE,141,5.8,11.5,81,0.00,FEW,FEW,0.00,0.0,WeatherDisplay:10.37,2013-04-13 06:40:00,
2013-04-13 00:45:00,35.6,30.3,29.82,SSE,161,7.8,11.5,81,0.00,FEW,FEW,0.00,0.0,WeatherDisplay:10.37,2013-04-13 06:45:00,
2013-04-13 00:50:00,35.5,30.5,29.82,SE,136,6.9,6.9,82,0.00,FEW,FEW,0.00,0.0,WeatherDisplay:10.37,2013-04-13 06:50:00,
2013-04-13 00:55:00,35.4,30.5,29.83,SE,144,5.8,9.2,82,0.00,FEW,FEW,0.00,0.0,WeatherDisplay:10.37,2013-04-13 06:55:00,
2013-04-13 01:00:00,35.3,30.4,29.83,SE,144,3.6,9.2,82,0.00,FEW,FEW,0.00,0.0,WeatherDisplay:10.37,2013-04-13 07:00:00,
2013-04-13 01:05:00,35.3,30.4,29.81,SSE,150,1.9,4.6,82,0.00,FEW,FEW,0.00,0.0,WeatherDisplay:10.37,2013-04-13 07:05:00,
2013-04-13 01:10:00,35.2,30.3,29.81,SSE,150,2.3,3.4,82,0.00,FEW,FEW,0.00,0.0,WeatherDisplay:10.37,2013-04-13 07:10:00,
2013-04-13 01:15:00,35.2,30.6,29.81,SSE,150,0.9,3.4,83,0.00,FEW,FEW,0.00,0.0,WeatherDisplay:10.37,2013-04-13 07:15:00,
2013-04-13 01:20:00,35.1,30.5,29.81,SSE,150,0.0,0.0,83,0.00,FEW,FEW,0.00,0.0,WeatherDisplay:10.37,2013-04-13 07:20:00,
2013-04-13 01:25:00,35.0,30.4,29.81,SSE,150,1.3,3.0,83,0.00,FEW,FEW,0.00,0.0,WeatherDisplay:10.37,2013-04-13 07:25:00,
2013-04-13 01:30:00,34.9,30.3,29.80,SSE,150,2.7,4.0,83,0.00,FEW,FEW,0.00,0.0,WeatherDisplay:10.37,2013-04-13 07:30:00,
2013-04-13 01:35:00,34.8,30.2,29.80,SSE,150,1.7,3.4,83,0.00,FEW,FEW,0.00,0.0,WeatherDisplay:10.37,2013-04-13 07:35:00,
2013-04-13 01:40:00,34.7,30.1,29.79,SSE,150,0.0,1.1,83,0.00,FEW,FEW,0.00,0.0,WeatherDisplay:10.37,2013-04-13 07:40:00,
2013-04-13 01:45:00,34.7,30.1,29.78,SSE,150,0.9,3.4,83,0.00,FEW,FEW,0.00,0.0,WeatherDisplay:10.37,2013-04-13 07:45:00,
2013-04-13 01:50:00,34.6,30.0,29.78,SSE,150,0.0,0.0,83,0.00,FEW,FEW,0.00,0.0,WeatherDisplay:10.37,2013-04-13 07:50:00,
2013-04-13 01:55:00,34.4,29.8,29.79,SSE,150,0.0,0.0,83,0.00,FEW,FEW,0.00,0.0,WeatherDisplay:10.37,2013-04-13 07:55:00,
2013-04-13 02:00:00,34.4,29.8,29.79,SSE,150,0.0,0.0,83,0.00,FEW,FEW,0.00,0.0,WeatherDisplay:10.37,2013-04-13 08:00:00,
2013-04-13 02:05:00,34.4,29.8,29.83,SSE,150,0.0,0.0,83,0.00,FEW,FEW,0.00,0.0,WeatherDisplay:10.37,2013-04-13 08:05:00,
2013-04-13 02:10:00,34.2,29.6,29.83,SSE,150,0.0,0.0,83,0.00,FEW,FEW,0.00,0.0,WeatherDisplay:10.37,2013-04-13 08:10:00,
2013-04-13 02:15:00,34.0,29.4,29.83,SSE,150,0.0,0.0,83,0.00,FEW,FEW,0.00,0.0,WeatherDisplay:10.37,2013-04-13 08:15:00,
2013-04-13 02:20:00,33.9,29.3,29.82,SSE,150,0.0,0.0,83,0.00,FEW,FEW,0.00,0.0,WeatherDisplay:10.37,2013-04-13 08:20:00,
2013-04-13 02:25:00,33.7,29.1,29.82,SSE,150,0.0,0.0,83,0.00,FEW,FEW,0.00,0.0,WeatherDisplay:10.37,2013-04-13 08:25:00,
2013-04-13 02:30:00,33.5,28.9,29.82,SSE,150,0.0,0.0,83,0.00,FEW,FEW,0.00,0.0,WeatherDisplay:10.37,2013-04-13 08:30:00,
2013-04-13 02:35:00,33.4,28.8,29.82,SSE,150,0.0,0.0,83,0.00,FEW,FEW,0.00,0.0,WeatherDisplay:10.37,2013-04-13 08:35:00,
2013-04-13 02:40:00,33.2,28.6,29.81,SSE,150,0.0,0.0,83,0.00,FEW,FEW,0.00,0.0,WeatherDisplay:10.37,2013-04-13 08:40:00,
2013-04-13 02:46:00,33.1,28.8,29.81,SSE,150,0.0,0.0,84,0.00,FEW,FEW,0.00,0.0,WeatherDisplay:10.37,2013-04-13 08:46:00,
2013-04-13 02:51:00,32.9,28.3,29.81,SSE,150,0.0,0.0,83,0.00,FEW,FEW,0.00,0.0,WeatherDisplay:10.37,2013-04-13 08:51:00,
2013-04-13 02:56:00,32.8,28.5,29.81,SSE,150,0.0,0.0,84,0.00,FEW,FEW,0.00,0.0,WeatherDisplay:10.37,2013-04-13 08:56:00,
2013-04-13 03:01:00,32.7,28.4,29.81,SSE,150,0.0,0.0,84,0.00,FEW,FEW,0.00,0.0,WeatherDisplay:10.37,2013-04-13 09:01:00,
2013-04-13 03:06:00,32.6,28.3,29.81,SSE,150,0.0,0.0,84,0.00,FEW,FEW,0.00,0.0,WeatherDisplay:10.37,2013-04-13 09:06:00,
2013-04-13 03:11:00,32.5,28.2,29.80,SSE,150,0.0,0.0,84,0.00,FEW,FEW,0.00,0.0,WeatherDisplay:10.37,2013-04-13 09:11:00,
2013-04-13 03:16:00,32.4,28.1,29.81,SSE,150,0.0,0.0,84,0.00,FEW,FEW,0.00,0.0,WeatherDisplay:10.37,2013-04-13 09:16:00,
2013-04-13 03:21:00,32.3,28.3,29.81,SSE,150,0.0,0.0,85,0.00,FEW,FEW,0.00,0.0,WeatherDisplay:10.37,2013-04-13 09:21:00,
2013-04-13 03:26:00,32.2,28.2,29.81,SSE,150,0.0,0.0,85,0.00,FEW,FEW,0.00,0.0,WeatherDisplay:10.37,2013-04-13 09:26:00,
2013-04-13 03:31:00,32.1,28.1,29.80,SSE,150,0.0,0.0,85,0.00,FEW,FEW,0.00,0.0,WeatherDisplay:10.37,2013-04-13 09:31:00,
2013-04-13 03:36:00,32.1,28.1,29.80,SSE,150,0.0,0.0,85,0.00,FEW,FEW,0.00,0.0,WeatherDisplay:10.37,2013-04-13 09:36:00,
2013-04-13 03:41:00,32.0,28.0,29.80,SSE,150,0.0,0.0,85,0.00,FEW,FEW,0.00,0.0,WeatherDisplay:10.37,2013-04-13 09:41:00,
2013-04-13 03:45:00,31.9,27.9,29.80,SSE,150,0.0,0.0,85,0.00,FEW,FEW,0.00,0.0,WeatherDisplay:10.37,2013-04-13 09:45:00,
2013-04-13 03:51:00,31.8,27.8,29.80,SSE,150,0.0,0.0,85,0.00,FEW,FEW,0.00,0.0,WeatherDisplay:10.37,2013-04-13 09:51:00,
2013-04-13 03:56:00,31.7,27.7,29.79,SSE,150,0.0,0.0,85,0.00,FEW,FEW,0.00,0.0,WeatherDisplay:10.37,2013-04-13 09:56:00,
2013-04-13 04:01:00,31.6,27.6,29.79,SSE,150,0.0,0.0,85,0.00,FEW,FEW,0.00,0.0,WeatherDisplay:10.37,2013-04-13 10:01:00,
2013-04-13 04:06:00,31.5,27.8,29.79,SSE,150,0.0,0.0,86,0.00,FEW,FEW,0.00,0.0,WeatherDisplay:10.37,2013-04-13 10:06:00,
2013-04-13 04:11:00,31.5,27.8,29.79,SSE,150,0.0,0.0,86,0.00,FEW,FEW,0.00,0.0,WeatherDisplay:10.37,2013-04-13 10:11:00,
2013-04-13 04:16:00,31.4,27.7,29.79,SSE,150,0.0,0.0,86,0.00,FEW,FEW,0.00,0.0,WeatherDisplay:10.37,2013-04-13 10:16:00,
2013-04-13 04:21:00,31.4,27.7,29.79,SSE,150,0.0,0.0,86,0.00,FEW,FEW,0.00,0.0,WeatherDisplay:10.37,2013-04-13 10:21:00,
2013-04-13 04:26:00,31.3,27.6,29.79,SSE,150,0.0,0.0,86,0.00,FEW,FEW,0.00,0.0,WeatherDisplay:10.37,2013-04-13 10:26:00,
2013-04-13 04:31:00,31.3,27.6,29.79,SSE,150,0.0,0.0,86,0.00,FEW,FEW,0.00,0.0,WeatherDisplay:10.37,2013-04-13 10:31:00,
2013-04-13 04:36:00,31.2,27.5,29.78,SSE,150,0.0,0.0,86,0.00,FEW,FEW,0.00,0.0,WeatherDisplay:10.37,2013-04-13 10:36:00,
2013-04-13 04:41:00,31.1,27.4,29.79,SSE,150,0.0,0.0,86,0.00,FEW,FEW,0.00,0.0,WeatherDisplay:10.37,2013-04-13 10:41:00,
2013-04-13 04:46:00,31.1,27.4,29.78,SSE,150,0.0,0.0,86,0.00,FEW,FEW,0.00,0.0,WeatherDisplay:10.37,2013-04-13 10:46:00,
2013-04-13 04:51:00,31.0,27.3,29.78,SSE,150,0.0,0.0,86,0.00,FEW,FEW,0.00,0.0,WeatherDisplay:10.37,2013-04-13 10:51:00,
2013-04-13 04:56:00,30.9,27.2,29.78,SSE,150,0.0,0.0,86,0.00,FEW,FEW,0.00,0.0,WeatherDisplay:10.37,2013-04-13 10:56:00,
2013-04-13 05:01:00,30.8,27.1,29.77,SSE,150,0.0,0.0,86,0.00,FEW,FEW,0.00,0.0,WeatherDisplay:10.37,2013-04-13 11:01:00,
2013-04-13 05:06:00,30.6,26.9,29.78,SSE,150,0.0,0.0,86,0.00,SCT,SCT,0.00,0.0,WeatherDisplay:10.37,2013-04-13 11:06:00,
2013-04-13 05:11:00,30.5,26.8,29.78,SSE,150,0.0,0.0,86,0.00,SCT,SCT,0.00,0.0,WeatherDisplay:10.37,2013-04-13 11:11:00,
2013-04-13 05:16:00,30.4,26.7,29.78,SSE,150,0.0,0.0,86,0.00,SCT,SCT,0.00,0.0,WeatherDisplay:10.37,2013-04-13 11:16:00,
2013-04-13 05:21:00,30.3,26.9,29.77,SSE,150,0.0,0.0,87,0.00,SCT,SCT,0.00,0.0,WeatherDisplay:10.37,2013-04-13 11:21:00,
2013-04-13 05:26:00,30.3,26.9,29.77,SSE,150,0.0,0.0,87,0.00,SCT,SCT,0.00,0.0,WeatherDisplay:10.37,2013-04-13 11:26:00,
2013-04-13 05:31:00,30.2,26.8,29.77,SSE,150,0.0,0.0,87,0.00,SCT,SCT,0.00,0.0,WeatherDisplay:10.37,2013-04-13 11:31:00,
2013-04-13 05:36:00,30.3,26.9,29.77,SSE,150,0.0,0.0,87,0.00,SCT,SCT,0.00,0.0,WeatherDisplay:10.37,2013-04-13 11:36:00,
2013-04-13 05:41:00,30.3,26.9,29.76,SSE,150,0.0,0.0,87,0.00,SCT,SCT,0.00,0.0,WeatherDisplay:10.37,2013-04-13 11:41:00,
2013-04-13 05:46:00,30.3,26.9,29.76,SSE,150,0.0,0.0,87,0.00,SCT,SCT,0.00,0.0,WeatherDisplay:10.37,2013-04-13 11:46:00,
2013-04-13 05:51:00,30.3,26.9,29.76,SSE,150,0.1,2.3,87,0.00,SCT,SCT,0.00,0.0,WeatherDisplay:10.37,2013-04-13 11:51:00,
2013-04-13 05:56:00,30.3,26.9,29.76,SSE,150,0.6,2.3,87,0.00,SCT,SCT,0.00,0.0,WeatherDisplay:10.37,2013-04-13 11:56:00,
2013-04-13 06:01:00,30.3,26.9,29.76,SSE,150,1.0,1.0,87,0.00,SCT,SCT,0.00,0.0,WeatherDisplay:10.37,2013-04-13 12:01:00,
2013-04-13 06:06:00,30.4,27.3,29.76,SSE,150,1.3,2.3,88,0.00,BKN,BKN,0.00,0.0,WeatherDisplay:10.37,2013-04-13 12:06:00,
2013-04-13 06:11:00,30.5,27.4,29.76,SSE,150,0.0,0.0,88,0.00,BKN,BKN,0.00,0.0,WeatherDisplay:10.37,2013-04-13 12:11:00,
2013-04-13 06:16:00,30.5,27.4,29.76,SSE,150,0.0,0.0,88,0.00,BKN,BKN,0.00,0.0,WeatherDisplay:10.37,2013-04-13 12:16:00,
2013-04-13 06:21:00,30.6,27.5,29.75,SSE,150,0.0,0.0,88,0.00,BKN,BKN,0.00,5.0,WeatherDisplay:10.37,2013-04-13 12:21:00,
2013-04-13 06:26:00,30.6,27.5,29.75,SSE,150,0.0,0.0,88,0.00,BKN,BKN,0.00,7.0,WeatherDisplay:10.37,2013-04-13 12:26:00,
2013-04-13 06:31:00,30.6,27.5,29.75,SSE,150,0.9,2.0,88,0.00,BKN,BKN,0.00,12.0,WeatherDisplay:10.37,2013-04-13 12:31:00,
2013-04-13 06:36:00,30.6,27.5,29.75,SSE,150,0.0,0.0,88,0.00,BKN,BKN,0.00,21.0,WeatherDisplay:10.37,2013-04-13 12:36:00,
2013-04-13 06:41:00,30.7,27.6,29.75,SSE,150,0.0,0.0,88,0.00,BKN,BKN,0.00,28.0,WeatherDisplay:10.37,2013-04-13 12:41:00,
2013-04-13 06:46:00,30.8,27.7,29.74,SSE,150,1.2,3.4,88,0.00,BKN,BKN,0.00,30.0,WeatherDisplay:10.37,2013-04-13 12:46:00,
2013-04-13 06:51:00,31.1,28.2,29.74,SSE,150,1.6,3.4,89,0.00,BKN,BKN,0.00,30.0,WeatherDisplay:10.37,2013-04-13 12:51:00,
2013-04-13 06:56:00,31.4,28.5,29.73,SSE,150,1.2,3.4,89,0.00,BKN,BKN,0.00,30.0,WeatherDisplay:10.37,2013-04-13 12:56:00,
2013-04-13 07:01:00,31.7,28.8,29.72,SSE,150,1.3,3.4,89,0.00,BKN,BKN,0.00,30.0,WeatherDisplay:10.37,2013-04-13 13:01:00,
2013-04-13 07:06:00,31.9,29.0,29.74,SSE,150,1.7,2.3,89,0.00,BKN,BKN,0.00,33.0,WeatherDisplay:10.37,2013-04-13 13:06:00,
2013-04-13 07:11:00,32.2,29.3,29.73,SSE,150,1.1,3.4,89,0.00,BKN,BKN,0.00,37.0,WeatherDisplay:10.37,2013-04-13 13:11:00,
2013-04-13 07:16:00,32.4,29.5,29.73,SSE,150,2.6,3.4,89,0.00,BKN,BKN,0.00,40.0,WeatherDisplay:10.37,2013-04-13 13:16:00,
2013-04-13 07:21:00,32.7,29.8,29.72,SSE,150,1.7,3.4,89,0.00,BKN,BKN,0.00,42.0,WeatherDisplay:10.37,2013-04-13 13:21:00,
2013-04-13 07:26:00,32.9,29.7,29.72,SSE,150,1.5,3.4,88,0.00,BKN,BKN,0.00,42.0,WeatherDisplay:10.37,2013-04-13 13:26:00,
2013-04-13 07:31:00,33.3,30.4,29.72,SSE,148,3.6,6.0,89,0.00,BKN,BKN,0.00,44.0,WeatherDisplay:10.37,2013-04-13 13:31:00,
2013-04-13 07:36:00,33.8,30.6,29.72,SSE,160,2.9,4.6,88,0.00,BKN,BKN,0.00,46.0,WeatherDisplay:10.37,2013-04-13 13:36:00,
2013-04-13 07:41:00,34.1,30.9,29.71,SSE,153,5.8,9.2,88,0.00,BKN,BKN,0.00,47.0,WeatherDisplay:10.37,2013-04-13 13:41:00,
2013-04-13 07:46:00,34.4,30.9,29.71,SE,142,4.6,9.2,87,0.00,BKN,BKN,0.00,53.0,WeatherDisplay:10.37,2013-04-13 13:46:00,
2013-04-13 07:51:00,34.8,31.3,29.69,SSE,159,3.6,5.8,87,0.00,BKN,BKN,0.00,62.0,WeatherDisplay:10.37,2013-04-13 13:51:00,
2013-04-13 07:56:00,35.1,31.3,29.69,SE,140,3.7,5.0,86,0.00,BKN,BKN,0.00,76.0,WeatherDisplay:10.37,2013-04-13 13:56:00,
2013-04-13 08:01:00,35.4,31.3,29.69,SE,140,5.2,6.9,85,0.00,BKN,BKN,0.00,90.0,WeatherDisplay:10.37,2013-04-13 14:01:00,
2013-04-13 08:06:00,35.7,31.3,29.70,SSE,153,6.7,9.2,84,0.00,BKN,BKN,0.00,95.0,WeatherDisplay:10.37,2013-04-13 14:06:00,
2013-04-13 08:11:00,36.0,31.3,29.69,SSE,148,5.9,9.2,83,0.00,BKN,BKN,0.00,100.0,WeatherDisplay:10.37,2013-04-13 14:11:00,
2013-04-13 08:16:00,36.3,31.3,29.69,SE,141,3.4,6.9,82,0.00,BKN,BKN,0.00,107.0,WeatherDisplay:10.37,2013-04-13 14:16:00,
2013-04-13 08:21:00,36.6,31.6,29.68,SE,138,5.1,6.0,82,0.00,BKN,BKN,0.00,114.0,WeatherDisplay:10.37,2013-04-13 14:21:00,
2013-04-13 08:26:00,36.9,31.6,29.68,SE,144,6.5,9.0,81,0.00,BKN,BKN,0.00,128.0,WeatherDisplay:10.37,2013-04-13 14:26:00,
2013-04-13 08:32:00,37.3,31.4,29.67,SSE,149,5.7,7.0,79,0.00,BKN,BKN,0.00,141.0,WeatherDisplay:10.37,2013-04-13 14:32:00,
2013-04-13 08:37:00,37.7,31.5,29.66,SSE,147,3.1,4.0,78,0.00,BKN,BKN,0.00,148.0,WeatherDisplay:10.37,2013-04-13 14:37:00,
2013-04-13 08:41:00,38.1,31.5,29.65,SE,146,4.6,6.0,77,0.00,BKN,BKN,0.00,151.0,WeatherDisplay:10.37,2013-04-13 14:41:00,
2013-04-13 08:47:00,38.5,31.6,29.65,SE,140,3.5,6.9,76,0.00,BKN,BKN,0.00,158.0,WeatherDisplay:10.37,2013-04-13 14:47:00,
2013-04-13 08:52:00,39.0,31.4,29.65,South,171,3.2,5.8,74,0.00,BKN,BKN,0.00,271.0,WeatherDisplay:10.37,2013-04-13 14:52:00,
2013-04-13 08:57:00,39.7,31.8,29.64,SSE,147,2.7,4.6,73,0.00,BKN,BKN,0.00,283.0,WeatherDisplay:10.37,2013-04-13 14:57:00,
2013-04-13 09:02:00,40.7,32.0,29.63,SSE,148,1.1,3.4,71,0.00,BKN,BKN,0.00,432.0,WeatherDisplay:10.37,2013-04-13 15:02:00,
2013-04-13 09:07:00,41.9,31.7,29.63,SSE,156,4.8,9.0,67,0.00,BKN,BKN,0.00,318.0,WeatherDisplay:10.37,2013-04-13 15:07:00,
2013-04-13 09:12:00,43.9,30.9,29.62,SSE,147,5.1,10.0,60,0.00,BKN,BKN,0.00,490.0,WeatherDisplay:10.37,2013-04-13 15:12:00,
2013-04-13 09:17:00,46.8,29.1,29.60,South,182,6.9,16.1,50,0.00,BKN,BKN,0.00,717.0,WeatherDisplay:10.37,2013-04-13 15:17:00,
2013-04-13 09:22:00,49.1,28.1,29.59,SE,130,6.6,11.5,44,0.00,BKN,BKN,0.00,503.0,WeatherDisplay:10.37,2013-04-13 15:22:00,
2013-04-13 09:27:00,50.3,27.5,29.57,South,172,5.6,11.5,41,0.00,BKN,BKN,0.00,448.0,WeatherDisplay:10.37,2013-04-13 15:27:00,
2013-04-13 09:32:00,51.3,27.2,29.57,SSW,210,5.1,11.5,39,0.00,BKN,BKN,0.00,548.0,WeatherDisplay:10.37,2013-04-13 15:32:00,
2013-04-13 09:37:00,52.1,26.6,29.56,South,175,3.8,11.5,37,0.00,BKN,BKN,0.00,455.0,WeatherDisplay:10.37,2013-04-13 15:37:00,
2013-04-13 09:42:00,52.8,25.9,29.56,SSE,161,6.5,11.5,35,0.00,BKN,BKN,0.00,434.0,WeatherDisplay:10.37,2013-04-13 15:42:00,
2013-04-13 09:47:00,53.6,25.9,29.54,South,171,4.4,11.5,34,0.00,BKN,BKN,0.00,404.0,WeatherDisplay:10.37,2013-04-13 15:47:00,
2013-04-13 09:52:00,54.2,24.9,29.54,SW,215,4.2,5.8,32,0.00,BKN,BKN,0.00,446.0,WeatherDisplay:10.37,2013-04-13 15:52:00,
2013-04-13 09:57:00,54.7,24.6,29.54,South,171,4.0,12.0,31,0.00,BKN,BKN,0.00,341.0,WeatherDisplay:10.37,2013-04-13 15:57:00,
2013-04-13 10:02:00,55.0,24.9,29.53,SSE,152,3.3,5.0,31,0.00,BKN,BKN,0.00,350.0,WeatherDisplay:10.37,2013-04-13 16:02:00,
2013-04-13 10:07:00,55.2,25.8,29.53,SW,214,3.6,7.0,32,0.00,BKN,BKN,0.00,374.0,WeatherDisplay:10.37,2013-04-13 16:07:00,
2013-04-13 10:12:00,55.3,25.1,29.53,South,189,3.1,10.3,31,0.00,BKN,BKN,0.00,515.0,WeatherDisplay:10.37,2013-04-13 16:12:00,
2013-04-13 10:17:00,55.8,24.0,29.53,South,179,4.4,9.2,29,0.00,BKN,BKN,0.00,510.0,WeatherDisplay:10.37,2013-04-13 16:17:00,
2013-04-13 10:22:00,56.3,25.2,29.53,South,189,1.1,4.6,30,0.00,BKN,BKN,0.00,830.0,WeatherDisplay:10.37,2013-04-13 16:22:00,
2013-04-13 10:27:00,57.4,24.5,29.51,SSE,157,4.7,10.3,28,0.00,BKN,BKN,0.00,754.0,WeatherDisplay:10.37,2013-04-13 16:27:00,
2013-04-13 10:32:00,58.0,25.0,29.51,SSW,194,2.4,8.1,28,0.00,BKN,BKN,0.00,499.0,WeatherDisplay:10.37,2013-04-13 16:32:00,
2013-04-13 10:37:00,58.2,24.3,29.51,South,170,6.2,10.3,27,0.00,BKN,BKN,0.00,524.0,WeatherDisplay:10.37,2013-04-13 16:37:00,
2013-04-13 10:42:00,58.5,24.6,29.51,SW,221,2.7,5.8,27,0.00,BKN,BKN,0.00,476.0,WeatherDisplay:10.37,2013-04-13 16:42:00,
2013-04-13 10:47:00,59.0,25.0,29.49,SSE,159,0.6,2.3,27,0.00,BKN,BKN,0.00,582.0,WeatherDisplay:10.37,2013-04-13 16:47:00,
2013-04-13 10:52:00,59.4,23.5,29.49,ESE,119,3.9,5.8,25,0.00,BKN,BKN,0.00,536.0,WeatherDisplay:10.37,2013-04-13 16:52:00,
2013-04-13 10:57:00,59.6,21.7,29.49,South,184,2.3,5.8,23,0.00,BKN,BKN,0.00,547.0,WeatherDisplay:10.37,2013-04-13 16:57:00,
2013-04-13 11:02:00,60.1,23.1,29.48,SSW,204,4.6,10.3,24,0.00,BKN,BKN,0.00,701.0,WeatherDisplay:10.37,2013-04-13 17:02:00,
2013-04-13 11:07:00,60.5,22.5,29.47,SE,131,2.2,9.0,23,0.00,BKN,BKN,0.00,670.0,WeatherDisplay:10.37,2013-04-13 17:07:00,
2013-04-13 11:12:00,61.1,21.9,29.46,South,184,7.1,10.3,22,0.00,BKN,BKN,0.00,615.0,WeatherDisplay:10.37,2013-04-13 17:12:00,
2013-04-13 11:17:00,61.3,22.1,29.46,SSW,196,4.0,10.3,22,0.00,BKN,BKN,0.00,888.0,WeatherDisplay:10.37,2013-04-13 17:17:00,
2013-04-13 11:22:00,61.7,22.4,29.45,SW,225,3.3,7.0,22,0.00,BKN,BKN,0.00,833.0,WeatherDisplay:10.37,2013-04-13 17:22:00,
2013-04-13 11:27:00,62.6,22.1,29.44,South,180,5.1,9.2,21,0.00,BKN,BKN,0.00,478.0,WeatherDisplay:10.37,2013-04-13 17:27:00,
2013-04-13 11:32:00,62.7,21.0,29.43,SE,145,4.6,9.2,20,0.00,BKN,BKN,0.00,596.0,WeatherDisplay:10.37,2013-04-13 17:32:00,
2013-04-13 11:37:00,62.5,20.8,29.43,South,176,6.1,7.0,20,0.00,BKN,BKN,0.00,490.0,WeatherDisplay:10.37,2013-04-13 17:37:00,
2013-04-13 11:42:00,62.6,20.9,29.43,SE,146,6.2,10.3,20,0.00,BKN,BKN,0.00,561.0,WeatherDisplay:10.37,2013-04-13 17:42:00,
2013-04-13 11:47:00,62.8,19.9,29.42,South,175,2.4,5.8,19,0.00,BKN,BKN,0.00,563.0,WeatherDisplay:10.37,2013-04-13 17:47:00,
2013-04-13 11:52:00,63.0,20.0,29.42,ESE,114,2.6,4.6,19,0.00,BKN,BKN,0.00,538.0,WeatherDisplay:10.37,2013-04-13 17:52:00,
2013-04-13 11:57:00,63.4,20.4,29.42,SSE,163,7.1,9.2,19,0.00,BKN,BKN,0.00,673.0,WeatherDisplay:10.37,2013-04-13 17:57:00,
2013-04-13 12:02:00,63.9,19.5,29.42,SE,134,4.7,9.2,18,0.00,BKN,BKN,0.00,633.0,WeatherDisplay:10.37,2013-04-13 18:02:00,
2013-04-13 12:07:00,64.2,19.8,29.42,South,180,0.9,3.4,18,0.00,BKN,BKN,0.00,870.0,WeatherDisplay:10.37,2013-04-13 18:07:00,
2013-04-13 12:12:00,65.0,21.7,29.40,SE,130,6.7,11.5,19,0.00,BKN,BKN,0.00,765.0,WeatherDisplay:10.37,2013-04-13 18:12:00,
2013-04-13 12:17:00,65.3,21.9,29.40,SW,221,0.3,9.2,19,0.00,BKN,BKN,0.00,763.0,WeatherDisplay:10.37,2013-04-13 18:17:00,
2013-04-13 12:22:00,65.9,23.7,29.40,SSW,207,0.9,5.0,20,0.00,BKN,BKN,0.00,729.0,WeatherDisplay:10.37,2013-04-13 18:22:00,
2013-04-13 12:27:00,66.1,21.3,29.40,SW,219,1.2,5.8,18,0.00,BKN,BKN,0.00,577.0,WeatherDisplay:10.37,2013-04-13 18:27:00,
2013-04-13 12:32:00,66.0,21.2,29.39,SW,217,6.0,10.3,18,0.00,BKN,BKN,0.00,656.0,WeatherDisplay:10.37,2013-04-13 18:32:00,
2013-04-13 12:37:00,65.8,21.1,29.39,SSW,202,0.8,3.4,18,0.00,BKN,BKN,0.00,782.0,WeatherDisplay:10.37,2013-04-13 18:37:00,
2013-04-13 12:42:00,66.3,22.8,29.38,SSW,207,5.6,10.3,19,0.00,BKN,BKN,0.00,563.0,WeatherDisplay:10.37,2013-04-13 18:42:00,
2013-04-13 12:47:00,66.4,22.8,29.38,SSW,211,1.6,2.3,19,0.00,BKN,BKN,0.00,788.0,WeatherDisplay:10.37,2013-04-13 18:47:00,
2013-04-13 12:52:00,66.7,23.1,29.36,South,175,1.2,3.4,19,0.00,BKN,BKN,0.00,842.0,WeatherDisplay:10.37,2013-04-13 18:52:00,
2013-04-13 12:57:00,67.3,22.3,29.36,SSE,160,2.9,5.8,18,0.00,BKN,BKN,0.00,988.0,WeatherDisplay:10.37,2013-04-13 18:57:00,
2013-04-13 13:02:00,67.4,22.4,29.36,SSE,150,3.6,9.2,18,0.00,OVC,OVC,0.00,645.0,WeatherDisplay:10.37,2013-04-13 19:02:00,
2013-04-13 13:07:00,67.5,22.5,29.37,South,182,0.1,2.3,18,0.00,OVC,OVC,0.00,902.0,WeatherDisplay:10.37,2013-04-13 19:07:00,
2013-04-13 13:12:00,68.0,22.9,29.36,SE,136,1.3,3.4,18,0.00,OVC,OVC,0.00,810.0,WeatherDisplay:10.37,2013-04-13 19:12:00,
2013-04-13 13:17:00,68.6,24.7,29.35,SSW,211,1.2,3.4,19,0.00,OVC,OVC,0.00,670.0,WeatherDisplay:10.37,2013-04-13 19:17:00,
2013-04-13 13:22:00,68.5,23.3,29.35,West,279,2.0,4.0,18,0.00,OVC,OVC,0.00,752.0,WeatherDisplay:10.37,2013-04-13 19:22:00,
2013-04-13 13:27:00,68.3,23.1,29.35,NNW,340,5.3,9.2,18,0.00,OVC,OVC,0.00,875.0,WeatherDisplay:10.37,2013-04-13 19:27:00,
2013-04-13 13:32:00,68.4,23.2,29.34,NNW,342,5.0,9.2,18,0.00,OVC,OVC,0.00,758.0,WeatherDisplay:10.37,2013-04-13 19:32:00,
2013-04-13 13:37:00,68.3,24.4,29.34,NNW,333,3.8,5.0,19,0.00,OVC,OVC,0.00,719.0,WeatherDisplay:10.37,2013-04-13 19:37:00,
2013-04-13 13:42:00,68.3,23.1,29.34,NNW,336,2.8,5.0,18,0.00,OVC,OVC,0.00,1037.0,WeatherDisplay:10.37,2013-04-13 19:42:00,
2013-04-13 13:47:00,68.5,23.3,29.34,NNE,21,1.0,3.4,18,0.00,OVC,OVC,0.00,1183.0,WeatherDisplay:10.37,2013-04-13 19:47:00,
2013-04-13 13:52:00,69.2,25.1,29.33,NE,46,0.6,4.0,19,0.00,OVC,OVC,0.00,1058.0,WeatherDisplay:10.37,2013-04-13 19:52:00,
2013-04-13 13:57:00,69.3,22.6,29.34,North,10,5.7,9.2,17,0.00,OVC,OVC,0.00,410.0,WeatherDisplay:10.37,2013-04-13 19:57:00,
2013-04-13 14:02:00,68.8,23.5,29.34,North,5,0.1,1.1,18,0.00,OVC,OVC,0.00,462.0,WeatherDisplay:10.37,2013-04-13 20:02:00,
2013-04-13 14:07:00,68.7,23.4,29.33,North,360,7.2,11.5,18,0.00,OVC,OVC,0.00,891.0,WeatherDisplay:10.37,2013-04-13 20:07:00,
2013-04-13 14:12:00,68.6,23.4,29.33,WNW,303,5.9,9.2,18,0.00,OVC,OVC,0.00,701.0,WeatherDisplay:10.37,2013-04-13 20:12:00,
2013-04-13 14:17:00,68.5,23.3,29.34,ENE,63,0.2,2.3,18,0.00,OVC,OVC,0.00,448.0,WeatherDisplay:10.37,2013-04-13 20:17:00,
2013-04-13 14:22:00,68.5,23.3,29.33,NNE,30,2.9,5.8,18,0.00,OVC,OVC,0.00,515.0,WeatherDisplay:10.37,2013-04-13 20:22:00,
2013-04-13 14:27:00,68.6,23.4,29.33,East,99,0.2,2.3,18,0.00,OVC,OVC,0.00,619.0,WeatherDisplay:10.37,2013-04-13 20:27:00,
2013-04-13 14:32:00,68.8,23.5,29.33,NW,309,1.3,7.0,18,0.00,OVC,OVC,0.00,687.0,WeatherDisplay:10.37,2013-04-13 20:32:00,
2013-04-13 14:37:00,68.6,23.4,29.32,WSW,252,0.0,0.0,18,0.00,OVC,OVC,0.00,573.0,WeatherDisplay:10.37,2013-04-13 20:37:00,
2013-04-13 14:42:00,68.5,23.3,29.32,WSW,244,0.9,3.4,18,0.00,OVC,OVC,0.00,459.0,WeatherDisplay:10.37,2013-04-13 20:42:00,
2013-04-13 14:47:00,68.4,24.5,29.33,NE,55,0.5,3.4,19,0.00,OVC,OVC,0.00,418.0,WeatherDisplay:10.37,2013-04-13 20:47:00,
2013-04-13 14:52:00,68.3,23.1,29.32,NNW,333,5.2,9.2,18,0.00,OVC,OVC,0.00,431.0,WeatherDisplay:10.37,2013-04-13 20:52:00,
2013-04-13 14:57:00,68.1,24.2,29.32,North,350,4.0,6.9,19,0.00,OVC,OVC,0.00,422.0,WeatherDisplay:10.37,2013-04-13 20:57:00,
2013-04-13 15:02:00,68.0,24.2,29.32,WNW,302,0.7,2.3,19,0.00,BKN,BKN,0.00,729.0,WeatherDisplay:10.37,2013-04-13 21:02:00,
2013-04-13 15:07:00,68.5,24.6,29.31,NNW,342,4.9,9.2,19,0.00,BKN,BKN,0.00,712.0,WeatherDisplay:10.37,2013-04-13 21:07:00,
2013-04-13 15:12:00,68.9,26.1,29.31,NNE,21,1.8,10.0,20,0.00,BKN,BKN,0.00,944.0,WeatherDisplay:10.37,2013-04-13 21:12:00,
2013-04-13 15:17:00,69.6,25.5,29.30,NW,313,3.2,9.2,19,0.00,BKN,BKN,0.00,617.0,WeatherDisplay:10.37,2013-04-13 21:17:00,
2013-04-13 15:22:00,69.9,24.4,29.29,North,355,0.9,3.4,18,0.00,BKN,BKN,0.00,557.0,WeatherDisplay:10.37,2013-04-13 21:22:00,
2013-04-13 15:27:00,69.9,24.4,29.30,NNE,22,5.1,7.0,18,0.00,BKN,BKN,0.00,371.0,WeatherDisplay:10.37,2013-04-13 21:27:00,
2013-04-13 15:32:00,69.2,25.1,29.30,NW,325,3.0,10.3,19,0.00,BKN,BKN,0.00,323.0,WeatherDisplay:10.37,2013-04-13 21:32:00,
2013-04-13 15:37:00,68.6,24.7,29.30,North,360,4.3,8.1,19,0.00,BKN,BKN,0.00,497.0,WeatherDisplay:10.37,2013-04-13 21:37:00,
2013-04-13 15:42:00,68.2,25.6,29.30,NNW,334,2.5,5.0,20,0.00,BKN,BKN,0.00,404.0,WeatherDisplay:10.37,2013-04-13 21:42:00,
2013-04-13 15:47:00,68.1,24.2,29.29,NNW,344,5.1,10.3,19,0.00,BKN,BKN,0.00,366.0,WeatherDisplay:10.37,2013-04-13 21:47:00,
2013-04-13 15:52:00,67.8,25.2,29.29,NW,321,3.9,6.9,20,0.00,BKN,BKN,0.00,475.0,WeatherDisplay:10.37,2013-04-13 21:52:00,
2013-04-13 15:57:00,67.8,25.2,29.29,NNW,344,3.9,6.0,20,0.00,BKN,BKN,0.00,612.0,WeatherDisplay:10.37,2013-04-13 21:57:00,
2013-04-13 16:02:00,67.8,25.2,29.28,NNE,15,4.5,9.2,20,0.00,BKN,BKN,0.00,411.0,WeatherDisplay:10.37,2013-04-13 22:02:00,
2013-04-13 16:07:00,67.9,25.3,29.29,North,11,1.2,3.4,20,0.00,BKN,BKN,0.00,612.0,WeatherDisplay:10.37,2013-04-13 22:07:00,
2013-04-13 16:12:00,68.4,24.5,29.29,SSW,200,0.7,8.1,19,0.00,BKN,BKN,0.00,545.0,WeatherDisplay:10.37,2013-04-13 22:12:00,
2013-04-13 16:17:00,68.5,25.8,29.28,WNW,294,2.9,3.4,20,0.00,BKN,BKN,0.00,306.0,WeatherDisplay:10.37,2013-04-13 22:17:00,
2013-04-13 16:22:00,68.5,24.6,29.28,NW,309,0.1,1.1,19,0.00,BKN,BKN,0.00,329.0,WeatherDisplay:10.37,2013-04-13 22:22:00,
2013-04-13 16:27:00,68.4,24.5,29.29,West,268,1.6,3.4,19,0.00,BKN,BKN,0.00,336.0,WeatherDisplay:10.37,2013-04-13 22:27:00,
2013-04-13 16:32:00,68.2,24.3,29.29,SE,144,1.6,5.0,19,0.00,BKN,BKN,0.00,429.0,WeatherDisplay:10.37,2013-04-13 22:32:00,
2013-04-13 16:37:00,68.3,24.4,29.29,SSW,203,1.6,3.4,19,0.00,BKN,BKN,0.00,285.0,WeatherDisplay:10.37,2013-04-13 22:37:00,
2013-04-13 16:42:00,68.3,24.4,29.29,SSE,157,5.0,10.3,19,0.00,BKN,BKN,0.00,218.0,WeatherDisplay:10.37,2013-04-13 22:42:00,
2013-04-13 16:47:00,68.1,24.2,29.28,SW,219,2.0,8.1,19,0.00,BKN,BKN,0.00,193.0,WeatherDisplay:10.37,2013-04-13 22:47:00,
2013-04-13 16:52:00,67.8,24.0,29.28,East,99,4.7,5.8,19,0.00,BKN,BKN,0.00,176.0,WeatherDisplay:10.37,2013-04-13 22:52:00,
2013-04-13 16:57:00,67.4,24.9,29.28,East,80,1.1,4.0,20,0.00,BKN,BKN,0.00,165.0,WeatherDisplay:10.37,2013-04-13 22:57:00,
2013-04-13 17:02:00,66.9,25.7,29.28,East,92,1.0,3.4,21,0.00,BKN,BKN,0.00,155.0,WeatherDisplay:10.37,2013-04-13 23:02:00,
2013-04-13 17:07:00,66.2,26.2,29.29,NE,51,5.5,11.5,22,0.00,BKN,BKN,0.00,176.0,WeatherDisplay:10.37,2013-04-13 23:07:00,
2013-04-13 17:12:00,65.5,25.6,29.29,East,84,5.5,9.2,22,0.00,BKN,BKN,0.00,171.0,WeatherDisplay:10.37,2013-04-13 23:12:00,
2013-04-13 17:17:00,65.0,25.2,29.30,NE,35,5.2,10.3,22,0.00,BKN,BKN,0.00,181.0,WeatherDisplay:10.37,2013-04-13 23:17:00,
2013-04-13 17:22:00,64.7,26.0,29.30,NNE,33,0.9,11.5,23,0.00,BKN,BKN,0.00,178.0,WeatherDisplay:10.37,2013-04-13 23:22:00,
2013-04-13 17:27:00,64.6,25.9,29.30,NE,54,0.1,3.4,23,0.00,BKN,BKN,0.00,155.0,WeatherDisplay:10.37,2013-04-13 23:27:00,
2013-04-13 17:32:00,64.6,27.0,29.30,East,88,2.7,4.6,24,0.00,BKN,BKN,0.00,162.0,WeatherDisplay:10.37,2013-04-13 23:32:00,
2013-04-13 17:37:00,64.5,25.8,29.30,NNW,344,4.3,5.8,23,0.00,BKN,BKN,0.00,144.0,WeatherDisplay:10.37,2013-04-13 23:37:00,
2013-04-13 17:42:00,64.3,26.7,29.30,North,11,3.0,9.2,24,0.00,BKN,BKN,0.00,146.0,WeatherDisplay:10.37,2013-04-13 23:42:00,
2013-04-13 17:47:00,64.0,26.4,29.29,ESE,109,3.5,6.9,24,0.00,BKN,BKN,0.00,137.0,WeatherDisplay:10.37,2013-04-13 23:47:00,
2013-04-13 17:52:00,63.8,26.3,29.29,North,350,2.3,6.9,24,0.00,BKN,BKN,0.00,176.0,WeatherDisplay:10.37,2013-04-13 23:52:00,
2013-04-13 17:57:00,63.7,26.2,29.30,NE,38,5.4,11.5,24,0.00,BKN,BKN,0.00,211.0,WeatherDisplay:10.37,2013-04-13 23:57:00,
2013-04-13 18:02:00,63.6,27.1,29.29,ENE,78,2.4,3.4,25,0.00,BKN,BKN,0.00,174.0,WeatherDisplay:10.37,2013-04-14 00:02:00,
2013-04-13 18:07:00,63.7,27.2,29.28,ESE,105,1.5,6.9,25,0.00,BKN,BKN,0.00,253.0,WeatherDisplay:10.37,2013-04-14 00:07:00,
2013-04-13 18:12:00,63.7,26.2,29.28,East,88,6.6,11.5,24,0.00,BKN,BKN,0.00,304.0,WeatherDisplay:10.37,2013-04-14 00:12:00,
2013-04-13 18:17:00,63.7,27.2,29.28,NE,56,5.6,10.3,25,0.00,BKN,BKN,0.00,262.0,WeatherDisplay:10.37,2013-04-14 00:17:00,
2013-04-13 18:22:00,63.7,27.2,29.28,ESE,123,3.3,3.4,25,0.00,BKN,BKN,0.00,171.0,WeatherDisplay:10.37,2013-04-14 00:22:00,
2013-04-13 18:27:00,63.7,27.2,29.28,East,92,3.1,5.8,25,0.00,BKN,BKN,0.00,120.0,WeatherDisplay:10.37,2013-04-14 00:27:00,
2013-04-13 18:32:00,63.4,26.9,29.29,NE,49,4.6,9.2,25,0.00,BKN,BKN,0.00,88.0,WeatherDisplay:10.37,2013-04-14 00:32:00,
2013-04-13 18:37:00,63.1,26.7,29.30,East,83,2.0,3.4,25,0.00,BKN,BKN,0.00,76.0,WeatherDisplay:10.37,2013-04-14 00:37:00,
2013-04-13 18:42:00,62.8,26.4,29.30,ENE,63,4.8,11.5,25,0.00,BKN,BKN,0.00,65.0,WeatherDisplay:10.37,2013-04-14 00:42:00,
2013-04-13 18:47:00,62.4,27.0,29.30,ENE,71,1.8,5.0,26,0.00,BKN,BKN,0.00,53.0,WeatherDisplay:10.37,2013-04-14 00:47:00,
2013-04-13 18:52:00,62.1,26.8,29.29,ENE,60,4.5,10.3,26,0.00,BKN,BKN,0.00,47.0,WeatherDisplay:10.37,2013-04-14 00:52:00,
2013-04-13 18:57:00,61.8,27.4,29.30,ENE,76,2.3,3.4,27,0.00,BKN,BKN,0.00,46.0,WeatherDisplay:10.37,2013-04-14 00:57:00,
2013-04-13 19:02:00,61.6,27.3,29.30,ENE,75,1.9,3.4,27,0.00,BKN,BKN,0.00,37.0,WeatherDisplay:10.37,2013-04-14 01:02:00,
2013-04-13 19:07:00,61.4,27.1,29.29,ENE,63,2.7,6.9,27,0.00,BKN,BKN,0.00,30.0,WeatherDisplay:10.37,2013-04-14 01:07:00,
2013-04-13 19:12:00,61.2,27.8,29.28,ENE,78,3.8,6.9,28,0.00,BKN,BKN,0.00,23.0,WeatherDisplay:10.37,2013-04-14 01:12:00,
2013-04-13 19:17:00,61.0,28.5,29.28,East,87,1.6,3.4,29,0.00,BKN,BKN,0.00,16.0,WeatherDisplay:10.37,2013-04-14 01:17:00,
2013-04-13 19:22:00,60.7,29.9,29.28,East,88,1.4,3.4,31,0.00,BKN,BKN,0.00,12.0,WeatherDisplay:10.37,2013-04-14 01:22:00,
2013-04-13 19:27:00,60.4,30.4,29.28,East,92,2.3,3.4,32,0.00,BKN,BKN,0.00,9.0,WeatherDisplay:10.37,2013-04-14 01:27:00,
2013-04-13 19:32:00,60.2,30.2,29.28,ESE,111,0.8,3.4,32,0.00,BKN,BKN,0.00,5.0,WeatherDisplay:10.37,2013-04-14 01:32:00,
2013-04-13 19:37:00,59.9,30.7,29.28,ESE,111,0.3,2.3,33,0.00,BKN,BKN,0.00,0.0,WeatherDisplay:10.37,2013-04-14 01:37:00,
2013-04-13 19:42:00,59.7,31.3,29.28,SE,134,1.0,9.2,34,0.00,BKN,BKN,0.00,0.0,WeatherDisplay:10.37,2013-04-14 01:42:00,
2013-04-13 19:47:00,59.4,31.0,29.30,ESE,121,2.1,5.8,34,0.00,BKN,BKN,0.00,0.0,WeatherDisplay:10.37,2013-04-14 01:47:00,
2013-04-13 19:52:00,59.0,31.4,29.30,ESE,121,0.2,3.0,35,0.00,BKN,BKN,0.00,0.0,WeatherDisplay:10.37,2013-04-14 01:52:00,
2013-04-13 19:57:00,58.8,31.9,29.29,ESE,113,2.5,6.0,36,0.00,BKN,BKN,0.00,0.0,WeatherDisplay:10.37,2013-04-14 01:57:00,
2013-04-13 20:02:00,58.4,31.5,29.29,SE,128,3.7,6.9,36,0.00,BKN,BKN,0.00,0.0,WeatherDisplay:10.37,2013-04-14 02:02:00,
2013-04-13 20:07:00,58.0,31.8,29.27,ESE,123,1.0,3.4,37,0.00,BKN,BKN,0.00,0.0,WeatherDisplay:10.37,2013-04-14 02:07:00,
2013-04-13 20:12:00,57.7,31.6,29.27,ESE,107,3.7,5.0,37,0.00,BKN,BKN,0.00,0.0,WeatherDisplay:10.37,2013-04-14 02:12:00,
2013-04-13 20:17:00,57.4,31.3,29.28,ESE,118,4.6,7.0,37,0.00,BKN,BKN,0.00,0.0,WeatherDisplay:10.37,2013-04-14 02:17:00,
2013-04-13 20:22:00,57.2,31.1,29.28,ESE,106,4.6,6.9,37,0.00,BKN,BKN,0.00,0.0,WeatherDisplay:10.37,2013-04-14 02:22:00,
2013-04-13 20:27:00,56.9,31.5,29.28,ESE,106,2.0,5.8,38,0.00,BKN,BKN,0.00,0.0,WeatherDisplay:10.37,2013-04-14 02:27:00,
2013-04-13 20:32:00,56.7,30.7,29.28,ESE,107,2.2,5.8,37,0.00,BKN,BKN,0.00,0.0,WeatherDisplay:10.37,2013-04-14 02:32:00,
2013-04-13 20:37:00,56.6,31.3,29.28,SE,142,0.2,5.8,38,0.00,BKN,BKN,0.00,0.0,WeatherDisplay:10.37,2013-04-14 02:37:00,
2013-04-13 20:42:00,56.4,31.1,29.30,SE,130,2.2,3.4,38,0.00,BKN,BKN,0.00,0.0,WeatherDisplay:10.37,2013-04-14 02:42:00,
2013-04-13 20:47:00,56.2,30.9,29.30,SE,130,0.5,2.3,38,0.00,BKN,BKN,0.00,0.0,WeatherDisplay:10.37,2013-04-14 02:47:00,
2013-04-13 20:52:00,56.0,30.7,29.30,SE,130,0.0,0.0,38,0.00,BKN,BKN,0.00,0.0,WeatherDisplay:10.37,2013-04-14 02:52:00,
2013-04-13 20:57:00,55.9,30.6,29.30,SE,130,0.0,1.1,38,0.00,BKN,BKN,0.00,0.0,WeatherDisplay:10.37,2013-04-14 02:57:00,
2013-04-13 21:02:00,55.7,30.5,29.30,SE,130,0.0,0.0,38,0.00,BKN,BKN,0.00,0.0,WeatherDisplay:10.37,2013-04-14 03:02:00,
2013-04-13 21:07:00,55.6,29.7,29.22,SE,130,0.9,2.3,37,0.00,BKN,BKN,0.00,0.0,WeatherDisplay:10.37,2013-04-14 03:07:00,
2013-04-13 21:12:00,55.5,29.6,29.21,ESE,105,0.6,5.8,37,0.00,BKN,BKN,0.00,0.0,WeatherDisplay:10.37,2013-04-14 03:12:00,
2013-04-13 21:17:00,55.5,29.0,29.20,NE,42,4.6,7.0,36,0.00,BKN,BKN,0.00,0.0,WeatherDisplay:10.37,2013-04-14 03:17:00,
2013-04-13 21:22:00,55.6,29.0,29.20,East,83,3.4,5.8,36,0.00,BKN,BKN,0.00,0.0,WeatherDisplay:10.37,2013-04-14 03:22:00,
2013-04-13 21:27:00,55.7,29.1,29.21,NNE,31,5.7,10.3,36,0.00,BKN,BKN,0.00,0.0,WeatherDisplay:10.37,2013-04-14 03:27:00,
2013-04-13 21:32:00,55.6,29.0,29.22,NE,48,1.1,9.0,36,0.00,BKN,BKN,0.00,0.0,WeatherDisplay:10.37,2013-04-14 03:32:00,
2013-04-13 21:37:00,55.4,30.2,29.22,NNE,28,5.4,6.9,38,0.00,BKN,BKN,0.00,0.0,WeatherDisplay:10.37,2013-04-14 03:37:00,
2013-04-13 21:42:00,55.1,29.9,29.22,North,5,2.6,5.0,38,0.00,BKN,BKN,0.00,0.0,WeatherDisplay:10.37,2013-04-14 03:42:00,
2013-04-13 21:47:00,54.9,29.7,29.22,WNW,299,1.4,3.4,38,0.00,BKN,BKN,0.00,0.0,WeatherDisplay:10.37,2013-04-14 03:47:00,
2013-04-13 21:52:00,54.8,29.7,29.22,WNW,298,0.9,3.0,38,0.00,BKN,BKN,0.00,0.0,WeatherDisplay:10.37,2013-04-14 03:52:00,
2013-04-13 21:57:00,54.7,28.9,29.21,East,86,3.3,5.8,37,0.00,BKN,BKN,0.00,0.0,WeatherDisplay:10.37,2013-04-14 03:57:00,
2013-04-13 22:00:00,54.7,29.6,29.21,East,86,0.9,2.3,38,0.00,BKN,BKN,0.00,0.0,WeatherDisplay:10.37,2013-04-14 04:00:00,
2013-04-13 22:05:00,54.5,29.4,29.19,East,86,0.0,2.3,38,0.00,BKN,BKN,0.00,0.0,WeatherDisplay:10.37,2013-04-14 04:05:00,
2013-04-13 22:10:00,54.3,29.2,29.20,East,86,0.0,3.4,38,0.00,BKN,BKN,0.00,0.0,WeatherDisplay:10.37,2013-04-14 04:10:00,
2013-04-13 22:15:00,54.2,29.1,29.19,East,86,0.8,3.4,38,0.00,BKN,BKN,0.00,0.0,WeatherDisplay:10.37,2013-04-14 04:15:00,
2013-04-13 22:20:00,53.9,29.5,29.18,East,86,0.5,2.3,39,0.00,BKN,BKN,0.00,0.0,WeatherDisplay:10.37,2013-04-14 04:20:00,
2013-04-13 22:25:00,53.7,29.9,29.19,East,86,0.2,1.1,40,0.00,BKN,BKN,0.00,0.0,WeatherDisplay:10.37,2013-04-14 04:25:00,
2013-04-13 22:30:00,53.6,29.8,29.19,East,86,1.7,3.4,40,0.00,BKN,BKN,0.00,0.0,WeatherDisplay:10.37,2013-04-14 04:30:00,
2013-04-13 22:35:00,53.3,30.2,29.20,East,86,1.4,2.3,41,0.00,BKN,BKN,0.00,0.0,WeatherDisplay:10.37,2013-04-14 04:35:00,
2013-04-13 22:40:00,52.9,31.0,29.20,NNW,336,3.0,3.4,43,0.00,BKN,BKN,0.00,0.0,WeatherDisplay:10.37,2013-04-14 04:40:00,
2013-04-13 22:45:00,52.4,31.7,29.20,North,5,1.6,5.8,45,0.00,BKN,BKN,0.00,0.0,WeatherDisplay:10.37,2013-04-14 04:45:00,
2013-04-13 22:50:00,51.9,32.8,29.19,ENE,71,1.3,5.8,48,0.00,BKN,BKN,0.00,0.0,WeatherDisplay:10.37,2013-04-14 04:50:00,
2013-04-13 22:55:00,51.4,32.9,29.20,NNE,30,1.7,4.6,49,0.00,BKN,BKN,0.00,0.0,WeatherDisplay:10.37,2013-04-14 04:55:00,
2013-04-13 23:00:00,51.1,33.1,29.22,NW,313,3.4,4.6,50,0.00,BKN,BKN,0.00,0.0,WeatherDisplay:10.37,2013-04-14 05:00:00,
2013-04-13 23:05:00,50.8,33.3,29.19,NNE,26,3.6,6.9,51,0.00,OVC,OVC,0.00,0.0,WeatherDisplay:10.37,2013-04-14 05:05:00,
2013-04-13 23:10:00,50.6,33.1,29.19,NNE,15,1.1,4.6,51,0.00,OVC,OVC,0.00,0.0,WeatherDisplay:10.37,2013-04-14 05:10:00,
2013-04-13 23:15:00,50.5,33.5,29.19,NNE,23,3.3,6.9,52,0.00,OVC,OVC,0.00,0.0,WeatherDisplay:10.37,2013-04-14 05:15:00,
2013-04-13 23:20:00,50.3,33.3,29.19,NNE,33,6.6,11.5,52,0.00,OVC,OVC,0.00,0.0,WeatherDisplay:10.37,2013-04-14 05:20:00,
2013-04-13 23:25:00,50.2,33.7,29.20,North,9,4.5,9.0,53,0.00,OVC,OVC,0.00,0.0,WeatherDisplay:10.37,2013-04-14 05:25:00,
2013-04-13 23:30:00,50.1,33.6,29.22,ENE,68,10.1,16.1,53,0.00,OVC,OVC,0.00,0.0,WeatherDisplay:10.37,2013-04-14 05:30:00,
2013-04-13 23:35:00,49.6,35.0,29.23,NNW,328,11.5,19.5,57,0.00,OVC,OVC,0.00,0.0,WeatherDisplay:10.37,2013-04-14 05:35:00,
2013-04-13 23:40:00,49.2,35.0,29.26,NNE,23,9.1,19.5,58,0.00,OVC,OVC,0.00,0.0,WeatherDisplay:10.37,2013-04-14 05:40:00,
2013-04-13 23:45:00,48.9,35.2,29.26,NNE,14,10.2,18.4,59,0.00,OVC,OVC,0.00,0.0,WeatherDisplay:10.37,2013-04-14 05:45:00,
2013-04-13 23:50:00,48.7,35.0,29.26,NNE,32,10.3,17.3,59,0.00,OVC,OVC,0.00,0.0,WeatherDisplay:10.37,2013-04-14 05:50:00,
2013-04-13 23:55:00,48.5,34.8,29.27,NNE,28,14.2,20.7,59,0.00,OVC,OVC,0.00,0.0,WeatherDisplay:10.37,2013-04-14 05:55:00,